sensor_id;sensor_type;location;lat;lon;timestamp;P1;durP1;ratioP1;P2;durP2;ratioP2
74793;SDS011;63320;50.768;6.724;2024-03-08T00:01:42;20.33;;;12.73;;
74793;SDS011;63320;50.768;6.724;2024-03-08T00:04:08;18.58;;;11.57;;
74793;SDS011;63320;50.768;6.724;2024-03-08T00:06:34;20.98;;;12.52;;
74793;SDS011;63320;50.768;6.724;2024-03-08T00:09:00;19.38;;;13.20;;
74793;SDS011;63320;50.768;6.724;2024-03-08T00:11:25;19.80;;;12.57;;
74793;SDS011;63320;50.768;6.724;2024-03-08T00:13:51;21.63;;;13.77;;
74793;SDS011;63320;50.768;6.724;2024-03-08T00:16:16;21.65;;;13.63;;
74793;SDS011;63320;50.768;6.724;2024-03-08T00:18:42;20.67;;;12.45;;
74793;SDS011;63320;50.768;6.724;2024-03-08T00:21:07;21.05;;;13.70;;
74793;SDS011;63320;50.768;6.724;2024-03-08T00:23:34;21.27;;;13.18;;
74793;SDS011;63320;50.768;6.724;2024-03-08T00:26:00;21.33;;;11.73;;
74793;SDS011;63320;50.768;6.724;2024-03-08T00:28:25;19.40;;;12.55;;
74793;SDS011;63320;50.768;6.724;2024-03-08T00:30:50;21.08;;;13.00;;
74793;SDS011;63320;50.768;6.724;2024-03-08T00:33:16;20.23;;;13.00;;
74793;SDS011;63320;50.768;6.724;2024-03-08T00:35:41;20.48;;;11.38;;
74793;SDS011;63320;50.768;6.724;2024-03-08T00:38:07;23.27;;;13.48;;
74793;SDS011;63320;50.768;6.724;2024-03-08T00:40:33;19.88;;;12.43;;
74793;SDS011;63320;50.768;6.724;2024-03-08T00:42:59;21.88;;;12.98;;
74793;SDS011;63320;50.768;6.724;2024-03-08T00:45:24;20.10;;;13.15;;
74793;SDS011;63320;50.768;6.724;2024-03-08T00:47:50;23.30;;;11.75;;
74793;SDS011;63320;50.768;6.724;2024-03-08T00:50:15;22.45;;;12.95;;
74793;SDS011;63320;50.768;6.724;2024-03-08T00:52:40;21.20;;;12.65;;
74793;SDS011;63320;50.768;6.724;2024-03-08T00:55:06;20.17;;;13.73;;
74793;SDS011;63320;50.768;6.724;2024-03-08T00:57:33;21.88;;;12.50;;
74793;SDS011;63320;50.768;6.724;2024-03-08T00:59:59;20.02;;;13.02;;
74793;SDS011;63320;50.768;6.724;2024-03-08T01:02:24;20.35;;;12.80;;
74793;SDS011;63320;50.768;6.724;2024-03-08T01:04:50;22.13;;;13.38;;
74793;SDS011;63320;50.768;6.724;2024-03-08T01:07:15;21.85;;;12.52;;
74793;SDS011;63320;50.768;6.724;2024-03-08T01:09:40;21.70;;;13.00;;
74793;SDS011;63320;50.768;6.724;2024-03-08T01:12:06;21.00;;;13.05;;
74793;SDS011;63320;50.768;6.724;2024-03-08T01:14:33;20.73;;;12.65;;
74793;SDS011;63320;50.768;6.724;2024-03-08T01:16:58;20.83;;;12.55;;
74793;SDS011;63320;50.768;6.724;2024-03-08T01:19:24;22.08;;;13.07;;
74793;SDS011;63320;50.768;6.724;2024-03-08T01:21:49;21.08;;;12.95;;
74793;SDS011;63320;50.768;6.724;2024-03-08T01:24:15;23.65;;;13.43;;
74793;SDS011;63320;50.768;6.724;2024-03-08T01:26:40;22.05;;;13.18;;
74793;SDS011;63320;50.768;6.724;2024-03-08T01:29:05;21.77;;;13.02;;
74793;SDS011;63320;50.768;6.724;2024-03-08T01:31:32;22.55;;;13.15;;
74793;SDS011;63320;50.768;6.724;2024-03-08T01:33:58;22.60;;;13.43;;
74793;SDS011;63320;50.768;6.724;2024-03-08T01:36:23;22.85;;;12.43;;
74793;SDS011;63320;50.768;6.724;2024-03-08T01:38:49;22.65;;;12.60;;
74793;SDS011;63320;50.768;6.724;2024-03-08T01:41:14;22.77;;;13.95;;
74793;SDS011;63320;50.768;6.724;2024-03-08T01:43:40;21.63;;;13.38;;
74793;SDS011;63320;50.768;6.724;2024-03-08T01:46:05;21.10;;;12.05;;
74793;SDS011;63320;50.768;6.724;2024-03-08T01:48:33;23.98;;;12.38;;
74793;SDS011;63320;50.768;6.724;2024-03-08T01:50:59;22.15;;;12.02;;
74793;SDS011;63320;50.768;6.724;2024-03-08T01:53:25;21.80;;;11.95;;
74793;SDS011;63320;50.768;6.724;2024-03-08T01:55:52;23.60;;;13.63;;
74793;SDS011;63320;50.768;6.724;2024-03-08T01:58:20;20.30;;;13.23;;
74793;SDS011;63320;50.768;6.724;2024-03-08T02:00:47;21.92;;;12.57;;
74793;SDS011;63320;50.768;6.724;2024-03-08T02:03:13;20.55;;;13.05;;
74793;SDS011;63320;50.768;6.724;2024-03-08T02:05:41;21.58;;;12.50;;
74793;SDS011;63320;50.768;6.724;2024-03-08T02:08:07;22.73;;;12.65;;
74793;SDS011;63320;50.768;6.724;2024-03-08T02:10:33;20.63;;;11.77;;
74793;SDS011;63320;50.768;6.724;2024-03-08T02:12:58;23.17;;;14.32;;
74793;SDS011;63320;50.768;6.724;2024-03-08T02:15:24;23.98;;;12.48;;
74793;SDS011;63320;50.768;6.724;2024-03-08T02:17:49;20.98;;;12.20;;
74793;SDS011;63320;50.768;6.724;2024-03-08T02:20:15;23.23;;;13.45;;
74793;SDS011;63320;50.768;6.724;2024-03-08T02:22:42;22.88;;;13.38;;
74793;SDS011;63320;50.768;6.724;2024-03-08T02:25:08;24.23;;;13.50;;
74793;SDS011;63320;50.768;6.724;2024-03-08T02:27:33;22.88;;;12.43;;
74793;SDS011;63320;50.768;6.724;2024-03-08T02:29:59;22.17;;;12.57;;
74793;SDS011;63320;50.768;6.724;2024-03-08T02:32:24;21.23;;;12.23;;
74793;SDS011;63320;50.768;6.724;2024-03-08T02:34:50;23.35;;;13.02;;
74793;SDS011;63320;50.768;6.724;2024-03-08T02:37:15;23.10;;;12.88;;
74793;SDS011;63320;50.768;6.724;2024-03-08T02:39:42;23.80;;;13.68;;
74793;SDS011;63320;50.768;6.724;2024-03-08T02:42:07;24.20;;;14.55;;
74793;SDS011;63320;50.768;6.724;2024-03-08T02:44:33;21.17;;;12.93;;
74793;SDS011;63320;50.768;6.724;2024-03-08T02:46:58;24.42;;;13.45;;
74793;SDS011;63320;50.768;6.724;2024-03-08T02:49:24;22.77;;;11.88;;
74793;SDS011;63320;50.768;6.724;2024-03-08T02:51:49;21.50;;;12.68;;
74793;SDS011;63320;50.768;6.724;2024-03-08T02:54:14;24.05;;;12.48;;
74793;SDS011;63320;50.768;6.724;2024-03-08T02:56:41;24.65;;;12.93;;
74793;SDS011;63320;50.768;6.724;2024-03-08T02:59:06;23.27;;;13.32;;
74793;SDS011;63320;50.768;6.724;2024-03-08T03:01:33;23.25;;;13.88;;
74793;SDS011;63320;50.768;6.724;2024-03-08T03:03:58;23.55;;;13.52;;
74793;SDS011;63320;50.768;6.724;2024-03-08T03:06:24;22.73;;;12.93;;
74793;SDS011;63320;50.768;6.724;2024-03-08T03:08:49;25.92;;;14.43;;
74793;SDS011;63320;50.768;6.724;2024-03-08T03:11:14;22.95;;;12.98;;
74793;SDS011;63320;50.768;6.724;2024-03-08T03:13:41;23.65;;;12.88;;
74793;SDS011;63320;50.768;6.724;2024-03-08T03:16:06;24.33;;;14.10;;
74793;SDS011;63320;50.768;6.724;2024-03-08T03:18:32;24.38;;;13.85;;
74793;SDS011;63320;50.768;6.724;2024-03-08T03:20:57;25.63;;;13.82;;
74793;SDS011;63320;50.768;6.724;2024-03-08T03:23:22;24.27;;;12.90;;
74793;SDS011;63320;50.768;6.724;2024-03-08T03:25:48;24.50;;;12.95;;
74793;SDS011;63320;50.768;6.724;2024-03-08T03:28:13;26.10;;;13.70;;
74793;SDS011;63320;50.768;6.724;2024-03-08T03:30:40;25.30;;;14.68;;
74793;SDS011;63320;50.768;6.724;2024-03-08T03:33:05;25.40;;;14.43;;
74793;SDS011;63320;50.768;6.724;2024-03-08T03:35:31;24.27;;;13.48;;
74793;SDS011;63320;50.768;6.724;2024-03-08T03:37:56;25.48;;;12.95;;
74793;SDS011;63320;50.768;6.724;2024-03-08T03:40:22;24.98;;;12.52;;
74793;SDS011;63320;50.768;6.724;2024-03-08T03:42:47;21.73;;;12.40;;
74793;SDS011;63320;50.768;6.724;2024-03-08T03:45:12;22.33;;;12.50;;
74793;SDS011;63320;50.768;6.724;2024-03-08T03:47:39;22.70;;;13.13;;
74793;SDS011;63320;50.768;6.724;2024-03-08T03:50:05;23.80;;;12.43;;
74793;SDS011;63320;50.768;6.724;2024-03-08T03:52:31;23.10;;;12.15;;
74793;SDS011;63320;50.768;6.724;2024-03-08T03:54:57;23.58;;;12.65;;
74793;SDS011;63320;50.768;6.724;2024-03-08T03:57:22;25.58;;;14.15;;
74793;SDS011;63320;50.768;6.724;2024-03-08T03:59:48;24.63;;;13.07;;
74793;SDS011;63320;50.768;6.724;2024-03-08T04:02:13;25.38;;;12.40;;
74793;SDS011;63320;50.768;6.724;2024-03-08T04:04:40;25.33;;;13.30;;
74793;SDS011;63320;50.768;6.724;2024-03-08T04:07:05;27.10;;;14.15;;
74793;SDS011;63320;50.768;6.724;2024-03-08T04:09:31;22.52;;;12.98;;
74793;SDS011;63320;50.768;6.724;2024-03-08T04:11:56;22.23;;;12.20;;
74793;SDS011;63320;50.768;6.724;2024-03-08T04:14:22;24.35;;;13.52;;
74793;SDS011;63320;50.768;6.724;2024-03-08T04:16:48;26.40;;;14.48;;
74793;SDS011;63320;50.768;6.724;2024-03-08T04:19:13;24.13;;;13.63;;
74793;SDS011;63320;50.768;6.724;2024-03-08T04:21:40;25.70;;;14.52;;
74793;SDS011;63320;50.768;6.724;2024-03-08T04:24:06;23.92;;;13.32;;
74793;SDS011;63320;50.768;6.724;2024-03-08T04:26:31;24.30;;;12.77;;
74793;SDS011;63320;50.768;6.724;2024-03-08T04:28:57;24.55;;;13.48;;
74793;SDS011;63320;50.768;6.724;2024-03-08T04:31:22;29.30;;;14.65;;
74793;SDS011;63320;50.768;6.724;2024-03-08T04:33:48;23.02;;;14.10;;
74793;SDS011;63320;50.768;6.724;2024-03-08T04:36:13;24.95;;;13.75;;
74793;SDS011;63320;50.768;6.724;2024-03-08T04:38:40;25.95;;;14.20;;
74793;SDS011;63320;50.768;6.724;2024-03-08T04:41:05;23.92;;;12.98;;
74793;SDS011;63320;50.768;6.724;2024-03-08T04:43:31;28.52;;;14.38;;
74793;SDS011;63320;50.768;6.724;2024-03-08T04:45:56;24.23;;;13.38;;
74793;SDS011;63320;50.768;6.724;2024-03-08T04:48:21;23.98;;;13.80;;
74793;SDS011;63320;50.768;6.724;2024-03-08T04:50:47;24.05;;;13.70;;
74793;SDS011;63320;50.768;6.724;2024-03-08T04:53:12;27.13;;;13.68;;
74793;SDS011;63320;50.768;6.724;2024-03-08T04:55:39;24.92;;;13.52;;
74793;SDS011;63320;50.768;6.724;2024-03-08T04:58:04;26.38;;;14.25;;
74793;SDS011;63320;50.768;6.724;2024-03-08T05:00:30;25.48;;;14.27;;
74793;SDS011;63320;50.768;6.724;2024-03-08T05:02:55;24.17;;;13.07;;
74793;SDS011;63320;50.768;6.724;2024-03-08T05:05:21;26.83;;;14.25;;
74793;SDS011;63320;50.768;6.724;2024-03-08T05:07:46;25.50;;;13.00;;
74793;SDS011;63320;50.768;6.724;2024-03-08T05:10:11;25.63;;;14.00;;
74793;SDS011;63320;50.768;6.724;2024-03-08T05:12:38;25.00;;;13.48;;
74793;SDS011;63320;50.768;6.724;2024-03-08T05:15:04;24.23;;;13.32;;
74793;SDS011;63320;50.768;6.724;2024-03-08T05:17:30;25.13;;;13.60;;
74793;SDS011;63320;50.768;6.724;2024-03-08T05:19:55;25.35;;;14.02;;
74793;SDS011;63320;50.768;6.724;2024-03-08T05:22:21;26.25;;;14.23;;
74793;SDS011;63320;50.768;6.724;2024-03-08T05:24:46;27.65;;;14.07;;
74793;SDS011;63320;50.768;6.724;2024-03-08T05:27:11;23.67;;;13.68;;
74793;SDS011;63320;50.768;6.724;2024-03-08T05:29:38;23.73;;;12.95;;
74793;SDS011;63320;50.768;6.724;2024-03-08T05:32:04;25.13;;;13.70;;
74793;SDS011;63320;50.768;6.724;2024-03-08T05:34:29;32.88;;;18.33;;
74793;SDS011;63320;50.768;6.724;2024-03-08T05:36:55;33.05;;;17.45;;
74793;SDS011;63320;50.768;6.724;2024-03-08T05:39:21;27.92;;;16.42;;
74793;SDS011;63320;50.768;6.724;2024-03-08T05:41:46;30.15;;;16.27;;
74793;SDS011;63320;50.768;6.724;2024-03-08T05:44:12;24.80;;;14.80;;
74793;SDS011;63320;50.768;6.724;2024-03-08T05:46:39;26.73;;;14.57;;
74793;SDS011;63320;50.768;6.724;2024-03-08T05:49:05;26.27;;;13.93;;
74793;SDS011;63320;50.768;6.724;2024-03-08T05:51:31;26.90;;;14.98;;
74793;SDS011;63320;50.768;6.724;2024-03-08T05:53:56;24.02;;;12.75;;
74793;SDS011;63320;50.768;6.724;2024-03-08T05:56:22;27.48;;;14.60;;
74793;SDS011;63320;50.768;6.724;2024-03-08T05:58:47;23.30;;;13.80;;
74793;SDS011;63320;50.768;6.724;2024-03-08T06:01:13;28.85;;;14.55;;
74793;SDS011;63320;50.768;6.724;2024-03-08T06:03:41;25.35;;;13.55;;
74793;SDS011;63320;50.768;6.724;2024-03-08T06:06:06;24.02;;;13.30;;
74793;SDS011;63320;50.768;6.724;2024-03-08T06:08:32;25.80;;;13.63;;
74793;SDS011;63320;50.768;6.724;2024-03-08T06:10:57;29.02;;;14.82;;
74793;SDS011;63320;50.768;6.724;2024-03-08T06:13:22;24.95;;;14.18;;
74793;SDS011;63320;50.768;6.724;2024-03-08T06:15:48;26.58;;;14.20;;
74793;SDS011;63320;50.768;6.724;2024-03-08T06:18:13;24.42;;;14.05;;
74793;SDS011;63320;50.768;6.724;2024-03-08T06:20:40;24.83;;;13.77;;
74793;SDS011;63320;50.768;6.724;2024-03-08T06:23:05;29.45;;;14.80;;
74793;SDS011;63320;50.768;6.724;2024-03-08T06:25:31;24.17;;;13.07;;
74793;SDS011;63320;50.768;6.724;2024-03-08T06:27:56;26.65;;;14.18;;
74793;SDS011;63320;50.768;6.724;2024-03-08T06:30:21;26.55;;;14.27;;
74793;SDS011;63320;50.768;6.724;2024-03-08T06:32:47;25.88;;;14.40;;
74793;SDS011;63320;50.768;6.724;2024-03-08T06:35:12;28.08;;;14.45;;
74793;SDS011;63320;50.768;6.724;2024-03-08T06:37:39;26.33;;;13.20;;
74793;SDS011;63320;50.768;6.724;2024-03-08T06:40:05;25.80;;;14.10;;
74793;SDS011;63320;50.768;6.724;2024-03-08T06:42:31;26.55;;;14.10;;
74793;SDS011;63320;50.768;6.724;2024-03-08T06:44:57;24.90;;;13.82;;
74793;SDS011;63320;50.768;6.724;2024-03-08T06:47:22;27.45;;;14.48;;
74793;SDS011;63320;50.768;6.724;2024-03-08T06:49:47;28.27;;;14.45;;
74793;SDS011;63320;50.768;6.724;2024-03-08T06:52:13;26.58;;;14.73;;
74793;SDS011;63320;50.768;6.724;2024-03-08T06:54:40;26.42;;;15.15;;
74793;SDS011;63320;50.768;6.724;2024-03-08T06:57:05;31.23;;;15.30;;
74793;SDS011;63320;50.768;6.724;2024-03-08T06:59:30;31.15;;;16.88;;
74793;SDS011;63320;50.768;6.724;2024-03-08T07:01:56;32.72;;;18.38;;
74793;SDS011;63320;50.768;6.724;2024-03-08T07:04:21;30.85;;;16.60;;
74793;SDS011;63320;50.768;6.724;2024-03-08T07:06:47;31.50;;;17.08;;
74793;SDS011;63320;50.768;6.724;2024-03-08T07:09:12;30.85;;;16.55;;
74793;SDS011;63320;50.768;6.724;2024-03-08T07:11:39;35.08;;;17.17;;
74793;SDS011;63320;50.768;6.724;2024-03-08T07:14:04;37.38;;;19.20;;
74793;SDS011;63320;50.768;6.724;2024-03-08T07:16:30;29.50;;;16.05;;
74793;SDS011;63320;50.768;6.724;2024-03-08T07:18:55;29.23;;;16.48;;
74793;SDS011;63320;50.768;6.724;2024-03-08T07:21:20;36.75;;;17.13;;
74793;SDS011;63320;50.768;6.724;2024-03-08T07:23:46;43.10;;;15.02;;
74793;SDS011;63320;50.768;6.724;2024-03-08T07:26:14;36.80;;;16.38;;
74793;SDS011;63320;50.768;6.724;2024-03-08T07:28:41;40.70;;;17.17;;
74793;SDS011;63320;50.768;6.724;2024-03-08T07:31:06;33.25;;;16.52;;
74793;SDS011;63320;50.768;6.724;2024-03-08T07:33:32;30.42;;;16.20;;
74793;SDS011;63320;50.768;6.724;2024-03-08T07:35:57;26.15;;;15.65;;
74793;SDS011;63320;50.768;6.724;2024-03-08T07:38:23;27.95;;;15.82;;
74793;SDS011;63320;50.768;6.724;2024-03-08T07:40:48;30.08;;;15.25;;
74793;SDS011;63320;50.768;6.724;2024-03-08T07:43:13;29.35;;;15.10;;
74793;SDS011;63320;50.768;6.724;2024-03-08T07:45:40;27.95;;;14.00;;
74793;SDS011;63320;50.768;6.724;2024-03-08T07:48:06;24.95;;;14.35;;
74793;SDS011;63320;50.768;6.724;2024-03-08T07:50:32;28.90;;;15.10;;
74793;SDS011;63320;50.768;6.724;2024-03-08T07:52:57;26.58;;;14.20;;
74793;SDS011;63320;50.768;6.724;2024-03-08T07:55:23;25.80;;;15.43;;
74793;SDS011;63320;50.768;6.724;2024-03-08T07:57:48;29.73;;;16.83;;
74793;SDS011;63320;50.768;6.724;2024-03-08T08:00:14;25.63;;;15.40;;
74793;SDS011;63320;50.768;6.724;2024-03-08T08:02:41;26.90;;;14.07;;
74793;SDS011;63320;50.768;6.724;2024-03-08T08:05:06;29.15;;;15.60;;
74793;SDS011;63320;50.768;6.724;2024-03-08T08:07:32;26.45;;;15.13;;
74793;SDS011;63320;50.768;6.724;2024-03-08T08:09:57;29.83;;;14.80;;
74793;SDS011;63320;50.768;6.724;2024-03-08T08:12:23;26.50;;;14.73;;
74793;SDS011;63320;50.768;6.724;2024-03-08T08:14:48;25.92;;;14.50;;
74793;SDS011;63320;50.768;6.724;2024-03-08T08:17:13;28.35;;;15.00;;
74793;SDS011;63320;50.768;6.724;2024-03-08T08:19:41;27.75;;;15.27;;
74793;SDS011;63320;50.768;6.724;2024-03-08T08:22:07;30.48;;;14.45;;
74793;SDS011;63320;50.768;6.724;2024-03-08T08:24:32;29.73;;;14.73;;
74793;SDS011;63320;50.768;6.724;2024-03-08T08:26:58;30.50;;;16.27;;
74793;SDS011;63320;50.768;6.724;2024-03-08T08:29:23;29.08;;;17.00;;
74793;SDS011;63320;50.768;6.724;2024-03-08T08:31:48;26.33;;;14.48;;
74793;SDS011;63320;50.768;6.724;2024-03-08T08:34:14;25.80;;;14.43;;
74793;SDS011;63320;50.768;6.724;2024-03-08T08:36:41;27.50;;;14.90;;
74793;SDS011;63320;50.768;6.724;2024-03-08T08:39:06;30.00;;;14.52;;
74793;SDS011;63320;50.768;6.724;2024-03-08T08:41:31;31.25;;;15.15;;
74793;SDS011;63320;50.768;6.724;2024-03-08T08:43:57;36.05;;;14.20;;
74793;SDS011;63320;50.768;6.724;2024-03-08T08:46:22;30.38;;;14.65;;
74793;SDS011;63320;50.768;6.724;2024-03-08T08:48:48;48.67;;;16.85;;
74793;SDS011;63320;50.768;6.724;2024-03-08T08:51:13;125.20;;;20.88;;
74793;SDS011;63320;50.768;6.724;2024-03-08T08:53:40;51.97;;;15.55;;
74793;SDS011;63320;50.768;6.724;2024-03-08T08:56:06;30.02;;;13.98;;
74793;SDS011;63320;50.768;6.724;2024-03-08T08:58:32;27.90;;;14.27;;
74793;SDS011;63320;50.768;6.724;2024-03-08T09:00:57;27.38;;;14.18;;
74793;SDS011;63320;50.768;6.724;2024-03-08T09:03:22;26.30;;;14.07;;
74793;SDS011;63320;50.768;6.724;2024-03-08T09:05:48;26.95;;;14.95;;
74793;SDS011;63320;50.768;6.724;2024-03-08T09:08:13;26.63;;;14.23;;
74793;SDS011;63320;50.768;6.724;2024-03-08T09:10:40;49.67;;;15.40;;
74793;SDS011;63320;50.768;6.724;2024-03-08T09:13:05;37.42;;;14.23;;
74793;SDS011;63320;50.768;6.724;2024-03-08T09:15:31;27.05;;;13.63;;
74793;SDS011;63320;50.768;6.724;2024-03-08T09:17:56;44.80;;;14.45;;
74793;SDS011;63320;50.768;6.724;2024-03-08T09:20:21;91.50;;;15.65;;
74793;SDS011;63320;50.768;6.724;2024-03-08T09:22:47;40.90;;;14.43;;
74793;SDS011;63320;50.768;6.724;2024-03-08T09:25:12;26.52;;;14.20;;
74793;SDS011;63320;50.768;6.724;2024-03-08T09:27:39;29.65;;;13.18;;
74793;SDS011;63320;50.768;6.724;2024-03-08T09:30:05;25.73;;;12.50;;
74793;SDS011;63320;50.768;6.724;2024-03-08T09:32:31;26.98;;;12.77;;
74793;SDS011;63320;50.768;6.724;2024-03-08T09:34:56;84.47;;;16.67;;
74793;SDS011;63320;50.768;6.724;2024-03-08T09:37:22;39.13;;;13.30;;
74793;SDS011;63320;50.768;6.724;2024-03-08T09:39:47;31.75;;;12.68;;
74793;SDS011;63320;50.768;6.724;2024-03-08T09:42:12;31.60;;;12.35;;
74793;SDS011;63320;50.768;6.724;2024-03-08T09:44:39;55.95;;;14.27;;
74793;SDS011;63320;50.768;6.724;2024-03-08T09:47:05;46.20;;;14.50;;
74793;SDS011;63320;50.768;6.724;2024-03-08T09:49:30;38.25;;;13.90;;
74793;SDS011;63320;50.768;6.724;2024-03-08T09:51:56;40.15;;;14.57;;
74793;SDS011;63320;50.768;6.724;2024-03-08T09:54:21;72.88;;;15.32;;
74793;SDS011;63320;50.768;6.724;2024-03-08T09:56:47;102.13;;;16.75;;
74793;SDS011;63320;50.768;6.724;2024-03-08T09:59:16;48.60;;;12.95;;
74793;SDS011;63320;50.768;6.724;2024-03-08T10:01:43;25.92;;;12.02;;
74793;SDS011;63320;50.768;6.724;2024-03-08T10:04:08;30.65;;;12.48;;
74793;SDS011;63320;50.768;6.724;2024-03-08T10:06:33;23.60;;;11.48;;
74793;SDS011;63320;50.768;6.724;2024-03-08T10:08:59;41.25;;;14.77;;
74793;SDS011;63320;50.768;6.724;2024-03-08T10:11:24;27.55;;;12.10;;
74793;SDS011;63320;50.768;6.724;2024-03-08T10:13:50;20.52;;;11.93;;
74793;SDS011;63320;50.768;6.724;2024-03-08T10:16:15;25.08;;;11.38;;
74793;SDS011;63320;50.768;6.724;2024-03-08T10:18:42;31.83;;;12.80;;
74793;SDS011;63320;50.768;6.724;2024-03-08T10:21:11;24.80;;;12.02;;
74793;SDS011;63320;50.768;6.724;2024-03-08T10:23:36;40.88;;;13.05;;
74793;SDS011;63320;50.768;6.724;2024-03-08T10:26:09;26.00;;;12.65;;
74793;SDS011;63320;50.768;6.724;2024-03-08T10:28:35;31.88;;;13.07;;
74793;SDS011;63320;50.768;6.724;2024-03-08T10:31:00;25.27;;;13.20;;
74793;SDS011;63320;50.768;6.724;2024-03-08T10:33:26;53.75;;;12.25;;
74793;SDS011;63320;50.768;6.724;2024-03-08T10:35:53;33.55;;;11.45;;
74793;SDS011;63320;50.768;6.724;2024-03-08T10:38:19;26.17;;;11.98;;
74793;SDS011;63320;50.768;6.724;2024-03-08T10:40:46;31.63;;;11.65;;
74793;SDS011;63320;50.768;6.724;2024-03-08T10:43:23;20.50;;;10.43;;
74793;SDS011;63320;50.768;6.724;2024-03-08T10:45:49;33.67;;;11.48;;
74793;SDS011;63320;50.768;6.724;2024-03-08T10:48:26;21.92;;;11.35;;
74793;SDS011;63320;50.768;6.724;2024-03-08T10:50:55;21.60;;;9.93;;
74793;SDS011;63320;50.768;6.724;2024-03-08T10:53:22;29.13;;;11.27;;
74793;SDS011;63320;50.768;6.724;2024-03-08T10:55:48;47.33;;;12.63;;
74793;SDS011;63320;50.768;6.724;2024-03-08T10:58:14;57.80;;;17.70;;
74793;SDS011;63320;50.768;6.724;2024-03-08T11:00:40;54.40;;;12.93;;
74793;SDS011;63320;50.768;6.724;2024-03-08T11:03:06;35.25;;;11.63;;
74793;SDS011;63320;50.768;6.724;2024-03-08T11:05:35;19.95;;;10.43;;
74793;SDS011;63320;50.768;6.724;2024-03-08T11:08:05;33.25;;;11.45;;
74793;SDS011;63320;50.768;6.724;2024-03-08T11:10:46;21.52;;;11.13;;
74793;SDS011;63320;50.768;6.724;2024-03-08T11:15:58;26.10;;;11.38;;
74793;SDS011;63320;50.768;6.724;2024-03-08T11:18:24;37.72;;;11.02;;
74793;SDS011;63320;50.768;6.724;2024-03-08T11:20:51;25.85;;;10.93;;
74793;SDS011;63320;50.768;6.724;2024-03-08T11:23:20;23.83;;;11.27;;
74793;SDS011;63320;50.768;6.724;2024-03-08T11:25:47;41.80;;;11.02;;
74793;SDS011;63320;50.768;6.724;2024-03-08T11:28:14;23.08;;;10.55;;
74793;SDS011;63320;50.768;6.724;2024-03-08T11:30:41;22.13;;;10.18;;
74793;SDS011;63320;50.768;6.724;2024-03-08T11:33:06;29.45;;;9.93;;
74793;SDS011;63320;50.768;6.724;2024-03-08T11:35:36;33.47;;;10.55;;
74793;SDS011;63320;50.768;6.724;2024-03-08T11:38:02;22.05;;;9.75;;
74793;SDS011;63320;50.768;6.724;2024-03-08T11:40:28;18.73;;;10.25;;
74793;SDS011;63320;50.768;6.724;2024-03-08T11:42:54;20.50;;;10.23;;
74793;SDS011;63320;50.768;6.724;2024-03-08T11:45:19;20.10;;;10.70;;
74793;SDS011;63320;50.768;6.724;2024-03-08T11:47:45;15.45;;;9.10;;
74793;SDS011;63320;50.768;6.724;2024-03-08T11:50:10;22.73;;;10.23;;
74793;SDS011;63320;50.768;6.724;2024-03-08T11:52:36;17.40;;;9.80;;
74793;SDS011;63320;50.768;6.724;2024-03-08T11:55:02;18.25;;;10.35;;
74793;SDS011;63320;50.768;6.724;2024-03-08T11:57:29;22.25;;;10.32;;
74793;SDS011;63320;50.768;6.724;2024-03-08T11:59:55;21.27;;;10.27;;
74793;SDS011;63320;50.768;6.724;2024-03-08T12:02:21;16.63;;;10.30;;
74793;SDS011;63320;50.768;6.724;2024-03-08T12:04:46;16.00;;;9.15;;
74793;SDS011;63320;50.768;6.724;2024-03-08T12:07:12;20.17;;;9.45;;
74793;SDS011;63320;50.768;6.724;2024-03-08T12:09:37;44.17;;;9.95;;
74793;SDS011;63320;50.768;6.724;2024-03-08T12:12:03;41.85;;;10.15;;
74793;SDS011;63320;50.768;6.724;2024-03-08T12:14:32;24.92;;;9.93;;
74793;SDS011;63320;50.768;6.724;2024-03-08T12:16:58;17.15;;;9.13;;
74793;SDS011;63320;50.768;6.724;2024-03-08T12:19:24;20.13;;;9.38;;
74793;SDS011;63320;50.768;6.724;2024-03-08T12:21:50;18.83;;;9.73;;
74793;SDS011;63320;50.768;6.724;2024-03-08T12:24:16;15.98;;;9.20;;
74793;SDS011;63320;50.768;6.724;2024-03-08T12:26:41;18.52;;;9.00;;
74793;SDS011;63320;50.768;6.724;2024-03-08T12:29:16;17.50;;;9.93;;
74793;SDS011;63320;50.768;6.724;2024-03-08T12:31:44;18.73;;;8.65;;
74793;SDS011;63320;50.768;6.724;2024-03-08T12:34:10;17.05;;;8.63;;
74793;SDS011;63320;50.768;6.724;2024-03-08T12:36:35;17.17;;;8.77;;
74793;SDS011;63320;50.768;6.724;2024-03-08T12:39:01;16.23;;;8.30;;
74793;SDS011;63320;50.768;6.724;2024-03-08T12:41:27;17.52;;;8.45;;
74793;SDS011;63320;50.768;6.724;2024-03-08T12:43:52;16.08;;;8.65;;
74793;SDS011;63320;50.768;6.724;2024-03-08T12:46:18;20.25;;;9.60;;
74793;SDS011;63320;50.768;6.724;2024-03-08T12:48:46;18.08;;;9.10;;
74793;SDS011;63320;50.768;6.724;2024-03-08T12:51:11;17.33;;;8.48;;
74793;SDS011;63320;50.768;6.724;2024-03-08T12:53:37;27.13;;;8.15;;
74793;SDS011;63320;50.768;6.724;2024-03-08T12:56:02;16.20;;;8.32;;
74793;SDS011;63320;50.768;6.724;2024-03-08T12:58:28;20.23;;;10.18;;
74793;SDS011;63320;50.768;6.724;2024-03-08T13:00:53;17.08;;;8.85;;
74793;SDS011;63320;50.768;6.724;2024-03-08T13:03:19;21.05;;;10.18;;
74793;SDS011;63320;50.768;6.724;2024-03-08T13:05:45;20.80;;;9.35;;
74793;SDS011;63320;50.768;6.724;2024-03-08T13:08:11;16.63;;;8.15;;
74793;SDS011;63320;50.768;6.724;2024-03-08T13:10:36;22.40;;;8.95;;
74793;SDS011;63320;50.768;6.724;2024-03-08T13:13:02;16.88;;;8.45;;
74793;SDS011;63320;50.768;6.724;2024-03-08T13:15:27;14.23;;;8.10;;
74793;SDS011;63320;50.768;6.724;2024-03-08T13:17:53;16.88;;;7.90;;
74793;SDS011;63320;50.768;6.724;2024-03-08T13:20:18;15.98;;;7.75;;
74793;SDS011;63320;50.768;6.724;2024-03-08T13:22:45;18.33;;;8.23;;
74793;SDS011;63320;50.768;6.724;2024-03-08T13:25:10;14.32;;;8.50;;
74793;SDS011;63320;50.768;6.724;2024-03-08T13:27:36;12.93;;;7.57;;
74793;SDS011;63320;50.768;6.724;2024-03-08T13:30:01;18.98;;;8.18;;
74793;SDS011;63320;50.768;6.724;2024-03-08T13:32:27;16.02;;;8.43;;
74793;SDS011;63320;50.768;6.724;2024-03-08T13:34:55;31.15;;;7.85;;
74793;SDS011;63320;50.768;6.724;2024-03-08T13:37:20;15.93;;;7.40;;
74793;SDS011;63320;50.768;6.724;2024-03-08T13:39:47;15.10;;;8.70;;
74793;SDS011;63320;50.768;6.724;2024-03-08T13:42:13;24.27;;;8.70;;
74793;SDS011;63320;50.768;6.724;2024-03-08T13:44:39;22.25;;;7.90;;
74793;SDS011;63320;50.768;6.724;2024-03-08T13:47:08;19.60;;;8.40;;
74793;SDS011;63320;50.768;6.724;2024-03-08T13:49:33;18.52;;;8.07;;
74793;SDS011;63320;50.768;6.724;2024-03-08T13:51:58;19.40;;;8.18;;
74793;SDS011;63320;50.768;6.724;2024-03-08T13:54:24;17.27;;;7.72;;
74793;SDS011;63320;50.768;6.724;2024-03-08T13:56:51;17.02;;;7.65;;
74793;SDS011;63320;50.768;6.724;2024-03-08T13:59:16;17.88;;;8.70;;
74793;SDS011;63320;50.768;6.724;2024-03-08T14:01:42;18.30;;;8.30;;
74793;SDS011;63320;50.768;6.724;2024-03-08T14:04:07;14.80;;;7.70;;
74793;SDS011;63320;50.768;6.724;2024-03-08T14:06:32;13.77;;;8.07;;
74793;SDS011;63320;50.768;6.724;2024-03-08T14:08:58;14.52;;;8.35;;
74793;SDS011;63320;50.768;6.724;2024-03-08T14:11:23;18.90;;;8.20;;
74793;SDS011;63320;50.768;6.724;2024-03-08T14:13:50;13.27;;;7.75;;
74793;SDS011;63320;50.768;6.724;2024-03-08T14:16:15;13.20;;;8.40;;
74793;SDS011;63320;50.768;6.724;2024-03-08T14:18:41;39.45;;;12.85;;